createdAt,value
2022-08-23T00:01:43.561Z,98816.91
2022-08-23T00:04:15.842Z,98812.88
2022-08-23T00:06:48.538Z,98812.44
2022-08-23T00:09:15.871Z,98775.00
2022-08-23T00:11:47.118Z,98803.25
2022-08-23T00:14:20.222Z,98808.09
2022-08-23T00:16:47.167Z,98800.50
2022-08-23T00:19:17.109Z,98796.72
2022-08-23T00:21:45.562Z,98816.66
2022-08-23T00:24:14.129Z,98799.47
2022-08-23T00:27:06.560Z,98800.53
2022-08-23T00:29:52.881Z,98812.19
2022-08-23T00:32:33.515Z,98802.03
2022-08-23T00:35:01.517Z,98798.66
2022-08-23T00:37:32.372Z,98804.47
2022-08-23T00:40:00.686Z,98788.72
2022-08-23T00:43:12.093Z,98800.16
2022-08-23T00:46:07.671Z,98776.03
2022-08-23T00:48:35.742Z,98800.09
2022-08-23T00:51:18.708Z,98799.22
2022-08-23T00:53:52.037Z,98802.84
2022-08-23T00:56:21.848Z,98797.00
2022-08-23T00:58:49.547Z,98783.53
2022-08-23T01:01:17.787Z,98798.47
2022-08-23T01:04:04.052Z,98806.94
2022-08-23T01:06:45.890Z,98780.44
2022-08-23T01:09:18.545Z,98787.63
2022-08-23T01:12:08.000Z,98802.34
2022-08-23T01:15:22.771Z,98785.34
2022-08-23T01:18:02.711Z,98793.06
2022-08-23T01:20:41.163Z,98787.13
2022-08-23T01:23:41.554Z,98790.44
2022-08-23T01:26:10.774Z,98804.84
2022-08-23T01:28:40.865Z,98809.06
2022-08-23T01:31:15.137Z,98787.22
2022-08-23T01:33:43.763Z,98789.66
2022-08-23T01:36:14.109Z,98804.84
2022-08-23T01:38:40.927Z,98818.44
2022-08-23T01:41:07.775Z,98812.47
2022-08-23T01:43:35.737Z,98802.16
2022-08-23T01:46:20.811Z,98816.09
2022-08-23T01:48:49.938Z,98824.41
2022-08-23T01:51:19.957Z,98819.94
2022-08-23T01:53:47.146Z,98805.66
2022-08-23T01:56:15.483Z,98802.53
2022-08-23T01:58:42.363Z,98813.97
2022-08-23T02:01:09.198Z,98817.78
2022-08-23T02:03:37.212Z,98803.97
2022-08-23T02:06:04.653Z,98821.13
2022-08-23T02:08:50.420Z,98810.13
2022-08-23T02:11:23.640Z,98826.06
2022-08-23T02:13:53.202Z,98828.41
2022-08-23T02:16:40.481Z,98822.34
2022-08-23T02:19:13.201Z,98821.75
2022-08-23T02:21:41.110Z,98818.31
2022-08-23T02:24:12.739Z,98804.78
2022-08-23T02:26:46.426Z,98826.78
2022-08-23T02:29:15.636Z,98822.16
2022-08-23T02:31:44.238Z,98805.47
2022-08-23T02:36:59.048Z,98831.44
2022-08-23T02:39:25.988Z,98823.59
2022-08-23T02:41:53.555Z,98821.06
2022-08-23T02:44:21.519Z,98830.50
2022-08-23T02:46:48.940Z,98819.56
2022-08-23T02:49:17.171Z,98821.09
2022-08-23T02:51:45.087Z,98841.31
2022-08-23T02:54:12.226Z,98824.66
2022-08-23T02:56:39.655Z,98822.88
2022-08-23T02:59:07.131Z,98835.72
2022-08-23T03:01:38.722Z,98835.84
2022-08-23T03:04:09.659Z,98840.34
2022-08-23T03:06:38.381Z,98846.69
2022-08-23T03:09:07.196Z,98845.13
2022-08-23T03:11:35.192Z,98854.53
2022-08-23T03:14:02.139Z,98856.19
2022-08-23T03:16:29.579Z,98844.50
2022-08-23T03:18:56.539Z,98812.22
2022-08-23T03:21:23.605Z,98855.69
2022-08-23T03:23:51.394Z,98860.47
2022-08-23T03:26:18.403Z,98845.31
2022-08-23T03:28:46.359Z,98834.75
2022-08-23T03:31:15.815Z,98859.50
2022-08-23T03:33:42.864Z,98859.97
2022-08-23T03:36:12.076Z,98854.97
2022-08-23T03:38:40.177Z,98856.16
2022-08-23T03:41:07.829Z,98859.75
2022-08-23T03:43:36.537Z,98853.53
2022-08-23T03:46:05.331Z,98860.22
2022-08-23T03:48:32.392Z,98851.13
2022-08-23T03:51:00.143Z,98867.81
2022-08-23T03:53:26.967Z,98874.97
2022-08-23T03:55:56.332Z,98866.72
2022-08-23T03:58:24.258Z,98869.16
2022-08-23T04:00:51.072Z,98873.22
2022-08-23T04:03:18.074Z,98877.41
2022-08-23T04:05:45.312Z,98876.09
2022-08-23T04:08:12.148Z,98878.59
2022-08-23T04:10:39.306Z,98882.38
2022-08-23T04:13:08.993Z,98887.00
2022-08-23T04:15:36.945Z,98870.31
2022-08-23T04:18:04.276Z,98888.88
2022-08-23T04:20:31.189Z,98867.41
2022-08-23T04:22:58.197Z,98893.59
2022-08-23T04:25:34.654Z,98895.63
2022-08-23T04:28:03.302Z,98895.16
2022-08-23T04:30:31.154Z,98886.94
2022-08-23T04:32:58.077Z,98902.91
2022-08-23T04:35:26.051Z,98886.19
2022-08-23T04:37:53.786Z,98911.81
2022-08-23T04:40:39.616Z,98898.41
2022-08-23T04:43:08.614Z,98865.44
2022-08-23T04:45:39.345Z,98920.00
2022-08-23T04:48:07.010Z,98923.31
2022-08-23T04:50:39.564Z,98903.75
2022-08-23T04:53:06.969Z,98912.56
2022-08-23T04:55:34.983Z,98922.94
2022-08-23T04:58:04.584Z,98923.31
2022-08-23T05:00:31.553Z,98915.19
2022-08-23T05:02:58.482Z,98904.13
2022-08-23T05:05:25.638Z,98942.34
2022-08-23T05:07:52.454Z,98940.91
2022-08-23T05:10:19.824Z,98930.03
2022-08-23T05:12:47.222Z,98933.34
2022-08-23T05:15:14.477Z,98921.16
2022-08-23T05:17:41.410Z,98940.03
2022-08-23T05:20:10.422Z,98947.56
2022-08-23T05:22:40.888Z,98947.06
2022-08-23T05:25:08.506Z,98928.44
2022-08-23T05:27:35.826Z,98931.72
2022-08-23T05:30:04.368Z,98942.94
2022-08-23T05:32:33.660Z,98941.78
2022-08-23T05:35:00.856Z,98906.44
2022-08-23T05:37:27.772Z,98933.94
2022-08-23T05:39:54.719Z,98920.00
2022-08-23T05:42:22.224Z,98950.38
2022-08-23T05:44:49.027Z,98953.13
2022-08-23T05:47:17.812Z,98954.59
2022-08-23T05:49:51.773Z,98932.66
2022-08-23T05:52:18.775Z,98953.38
2022-08-23T05:54:45.614Z,98943.38
2022-08-23T05:57:12.524Z,98953.69
2022-08-23T05:59:41.682Z,98949.66
2022-08-23T06:02:08.524Z,98952.47
2022-08-23T06:04:36.074Z,98961.63
2022-08-23T06:07:03.024Z,98972.28
2022-08-23T06:09:29.894Z,98952.94
2022-08-23T06:11:58.627Z,98959.19
2022-08-23T06:14:25.561Z,98960.75
2022-08-23T06:16:55.869Z,98978.16
2022-08-23T06:19:24.132Z,98965.16
2022-08-23T06:21:52.229Z,98959.69
2022-08-23T06:24:19.716Z,98953.00
2022-08-23T06:26:47.496Z,98978.66
2022-08-23T06:29:17.492Z,98979.75
2022-08-23T06:31:48.961Z,98979.50
2022-08-23T06:34:33.571Z,98964.38
2022-08-23T06:37:09.983Z,98980.09
2022-08-23T06:39:38.423Z,98985.22
2022-08-23T06:42:36.536Z,98941.16
2022-08-23T06:44:58.850Z,98982.59
2022-08-23T06:47:25.816Z,98959.41
2022-08-23T06:49:57.996Z,98983.97
2022-08-23T06:52:27.478Z,98982.06
2022-08-23T06:54:54.594Z,98969.28
2022-08-23T06:57:21.791Z,98987.88
2022-08-23T06:59:49.899Z,98976.94
2022-08-23T07:02:16.907Z,98989.22
2022-08-23T07:04:43.847Z,98987.94
2022-08-23T07:07:12.359Z,98983.25
2022-08-23T07:09:40.434Z,98991.38
2022-08-23T07:12:07.645Z,98995.31
2022-08-23T07:14:34.838Z,98995.06
2022-08-23T07:17:03.498Z,98972.91
2022-08-23T07:19:34.269Z,98992.41
2022-08-23T07:22:04.062Z,98999.34
2022-08-23T07:24:34.429Z,98990.03
2022-08-23T07:27:07.076Z,98998.25
2022-08-23T07:29:36.473Z,98997.03
2022-08-23T07:32:04.007Z,98980.94
2022-08-23T07:34:30.854Z,98997.41
2022-08-23T07:36:57.680Z,98991.31
2022-08-23T07:39:26.478Z,98987.50
2022-08-23T07:41:53.391Z,99002.34
2022-08-23T07:44:23.520Z,99001.41
2022-08-23T07:46:54.571Z,99006.97
2022-08-23T07:49:21.775Z,98975.88
2022-08-23T07:51:52.086Z,98998.53
2022-08-23T07:54:22.230Z,99000.63
2022-08-23T07:56:49.134Z,98998.59
2022-08-23T07:59:16.061Z,98988.63
2022-08-23T08:01:44.655Z,99002.53
2022-08-23T08:04:12.551Z,98993.94
2022-08-23T08:06:46.066Z,99004.63
2022-08-23T08:09:15.529Z,98986.63
2022-08-23T08:11:47.437Z,99008.41
2022-08-23T08:14:17.136Z,99007.66
2022-08-23T08:16:47.768Z,99009.31
2022-08-23T08:19:18.971Z,99016.00
2022-08-23T08:21:48.236Z,99018.94
2022-08-23T08:24:16.754Z,99010.56
2022-08-23T08:26:45.336Z,99010.19
2022-08-23T08:29:13.270Z,98999.81
2022-08-23T08:31:43.858Z,99011.19
2022-08-23T08:34:11.957Z,99009.00
2022-08-23T08:36:49.502Z,98990.56
2022-08-23T08:39:21.305Z,98994.22
2022-08-23T08:42:12.355Z,98986.56
2022-08-23T08:45:27.878Z,99015.38
2022-08-23T08:48:03.821Z,99016.78
2022-08-23T08:50:53.878Z,99003.88
2022-08-23T08:53:38.931Z,99019.81
2022-08-23T08:56:33.015Z,99013.13
2022-08-23T08:59:06.700Z,99023.16
2022-08-23T09:01:36.738Z,99024.56
2022-08-23T09:04:05.808Z,99009.38
2022-08-23T09:07:07.097Z,99013.56
2022-08-23T09:09:53.826Z,99012.59
2022-08-23T09:12:49.807Z,99010.66
2022-08-23T09:15:49.845Z,99011.09
2022-08-23T09:18:17.065Z,99012.63
2022-08-23T09:20:47.626Z,99010.44
2022-08-23T09:23:21.724Z,98988.94
2022-08-23T09:26:03.775Z,98993.03
2022-08-23T09:28:36.429Z,99005.09
2022-08-23T09:31:03.961Z,98977.22
2022-08-23T09:33:43.585Z,99003.03
2022-08-23T09:36:27.081Z,99005.09
2022-08-23T09:39:00.969Z,98994.84
2022-08-23T09:41:38.021Z,99003.19
2022-08-23T09:44:09.863Z,98982.50
2022-08-23T09:46:42.642Z,99000.63
2022-08-23T09:49:28.123Z,98997.00
2022-08-23T09:51:59.835Z,98994.97
2022-08-23T09:54:34.181Z,98985.38
2022-08-23T09:57:10.206Z,98988.22
2022-08-23T09:59:51.707Z,98976.91
2022-08-23T10:02:21.510Z,98993.22
2022-08-23T10:05:18.335Z,98979.53
2022-08-23T10:07:58.696Z,98984.78
2022-08-23T10:10:43.595Z,98982.53
2022-08-23T10:13:13.731Z,98978.00
2022-08-23T10:16:04.952Z,98977.84
2022-08-23T10:19:18.024Z,98982.00
2022-08-23T10:22:03.824Z,98978.13
2022-08-23T10:24:47.197Z,98980.25
2022-08-23T10:28:06.051Z,98982.13
2022-08-23T10:31:00.164Z,98974.28
2022-08-23T10:33:47.139Z,98968.16
2022-08-23T10:36:19.901Z,98978.28
2022-08-23T10:38:59.350Z,98949.66
2022-08-23T10:42:11.300Z,98963.34
2022-08-23T10:44:55.663Z,98944.28
2022-08-23T10:47:34.305Z,98955.81
2022-08-23T10:50:12.347Z,98945.19
2022-08-23T10:52:53.723Z,98940.41
2022-08-23T10:56:04.156Z,98933.31
2022-08-23T10:58:48.308Z,98944.91
2022-08-23T11:01:22.870Z,98924.88
2022-08-23T11:04:06.944Z,98946.06
2022-08-23T11:06:36.690Z,98937.59
2022-08-23T11:09:17.462Z,98948.38
2022-08-23T11:12:19.752Z,98922.50
2022-08-23T11:15:07.319Z,98934.25
2022-08-23T11:17:49.385Z,98929.59
2022-08-23T11:20:51.591Z,98925.44
2022-08-23T11:23:43.623Z,98921.41
2022-08-23T11:26:36.053Z,98919.81
2022-08-23T11:29:11.725Z,98918.13
2022-08-23T11:31:44.907Z,98921.97
2022-08-23T11:34:29.707Z,98919.69
2022-08-23T11:37:18.777Z,98920.56
2022-08-23T11:40:16.076Z,98919.13
2022-08-23T11:42:53.361Z,98896.69
2022-08-23T11:45:41.566Z,98907.34
2022-08-23T11:48:27.406Z,98911.03
2022-08-23T11:51:27.324Z,98907.56
2022-08-23T11:53:54.033Z,98902.72
2022-08-23T11:56:52.330Z,98902.91
2022-08-23T11:59:49.637Z,98891.34
2022-08-23T12:02:53.014Z,98901.84
2022-08-23T12:05:51.693Z,98899.91
2022-08-23T12:08:24.087Z,98897.38
2022-08-23T12:10:51.060Z,98888.91
2022-08-23T12:13:20.848Z,98897.44
2022-08-23T12:16:19.829Z,98895.59
2022-08-23T12:18:49.758Z,98898.44
2022-08-23T12:21:39.833Z,98895.31
2022-08-23T12:24:25.458Z,98892.38
2022-08-23T12:27:12.950Z,98897.16
2022-08-23T12:30:05.380Z,98891.56
2022-08-23T12:33:08.012Z,98888.63
2022-08-23T12:35:41.882Z,98879.78
2022-08-23T12:38:17.400Z,98877.19
2022-08-23T12:40:50.661Z,98877.59
2022-08-23T12:43:24.963Z,98865.59
2022-08-23T12:46:00.836Z,98882.94
2022-08-23T12:48:33.263Z,98881.28
2022-08-23T12:51:08.445Z,98876.16
2022-08-23T12:53:45.634Z,98866.75
2022-08-23T12:56:22.763Z,98866.91
2022-08-23T12:59:04.463Z,98868.69
2022-08-23T13:01:38.449Z,98869.72
2022-08-23T13:04:15.628Z,98865.06
2022-08-23T13:06:47.381Z,98863.59
2022-08-23T13:09:18.377Z,98864.66
2022-08-23T13:11:46.232Z,98864.41
2022-08-23T13:14:31.882Z,98857.19
2022-08-23T13:17:26.969Z,98856.16
2022-08-23T13:20:13.818Z,98858.06
2022-08-23T13:23:00.691Z,98845.91
2022-08-23T13:25:38.149Z,98853.06
2022-08-23T13:28:22.029Z,98853.78
2022-08-23T13:31:08.503Z,98842.50
2022-08-23T13:33:35.921Z,98831.78
2022-08-23T13:36:21.425Z,98844.25
2022-08-23T13:38:49.169Z,98834.22
2022-08-23T13:41:38.581Z,98845.22
2022-08-23T13:44:10.201Z,98842.78
2022-08-23T13:46:45.461Z,98843.50
2022-08-23T13:49:28.403Z,98842.88
2022-08-23T13:52:26.359Z,98848.19
2022-08-23T13:54:51.291Z,98853.81
2022-08-23T13:57:20.521Z,98844.72
2022-08-23T13:59:56.315Z,98846.47
2022-08-23T14:02:24.476Z,98823.72
2022-08-23T14:04:51.433Z,98834.91
2022-08-23T14:07:19.255Z,98834.22
2022-08-23T14:09:46.341Z,98839.06
2022-08-23T14:12:21.294Z,98834.56
2022-08-23T14:14:48.794Z,98813.22
2022-08-23T14:17:16.998Z,98837.09
2022-08-23T14:22:34.494Z,98833.44
2022-08-23T14:25:01.487Z,98820.78
2022-08-23T14:27:28.345Z,98827.66
2022-08-23T14:29:55.173Z,98822.66
2022-08-23T14:32:22.219Z,98819.44
2022-08-23T14:34:49.428Z,98820.63
2022-08-23T14:40:04.775Z,98816.59
2022-08-23T14:42:31.912Z,98814.34
2022-08-23T14:45:00.962Z,98828.28
2022-08-23T14:47:27.870Z,98820.28
2022-08-23T14:49:54.803Z,98823.59
2022-08-23T14:52:22.515Z,98814.09
2022-08-23T14:54:49.871Z,98809.53
2022-08-23T14:57:16.852Z,98821.09
2022-08-23T14:59:43.947Z,98822.28
2022-08-23T15:02:13.761Z,98827.53
2022-08-23T15:04:42.144Z,98829.06
2022-08-23T15:07:18.555Z,98822.56
2022-08-23T15:09:52.132Z,98831.19
2022-08-23T15:15:12.743Z,98824.06
2022-08-23T15:17:54.768Z,98817.84
2022-08-23T15:20:25.979Z,98825.75
2022-08-23T15:23:03.511Z,98818.88
2022-08-23T15:25:33.387Z,98819.75
2022-08-23T15:28:05.060Z,98810.84
2022-08-23T15:30:33.697Z,98807.56
2022-08-23T15:33:01.152Z,98805.53
2022-08-23T15:35:29.139Z,98814.88
2022-08-23T15:37:57.233Z,98805.25
2022-08-23T15:40:25.555Z,98815.09
2022-08-23T15:42:53.078Z,98815.94
2022-08-23T15:45:20.154Z,98822.63
2022-08-23T15:47:54.837Z,98825.31
2022-08-23T15:50:26.922Z,98809.38
2022-08-23T15:52:54.686Z,98807.59
2022-08-23T15:55:24.143Z,98807.03
2022-08-23T15:57:52.878Z,98826.88
2022-08-23T16:00:22.638Z,98822.38
2022-08-23T16:03:27.728Z,98806.25
2022-08-23T16:05:39.971Z,98815.28
2022-08-23T16:08:07.895Z,98801.47
2022-08-23T16:10:35.087Z,98809.81
2022-08-23T16:13:03.668Z,98801.13
2022-08-23T16:15:31.107Z,98798.03
2022-08-23T16:17:57.954Z,98815.13
2022-08-23T16:20:25.383Z,98809.75
2022-08-23T16:22:52.332Z,98803.00
2022-08-23T16:25:19.290Z,98793.88
2022-08-23T16:27:46.104Z,98802.63
2022-08-23T16:30:14.544Z,98803.78
2022-08-23T16:32:41.679Z,98799.88
2022-08-23T16:35:09.631Z,98795.00
2022-08-23T16:37:36.693Z,98812.28
2022-08-23T16:40:07.027Z,98809.22
2022-08-23T16:42:33.926Z,98788.19
2022-08-23T16:45:01.052Z,98819.91
2022-08-23T16:47:29.098Z,98798.72
2022-08-23T16:49:56.003Z,98802.88
2022-08-23T16:52:32.008Z,98811.84
2022-08-23T16:55:07.968Z,98803.66
2022-08-23T16:57:34.898Z,98823.38
2022-08-23T17:00:02.172Z,98813.91
2022-08-23T17:02:33.364Z,98821.06
2022-08-23T17:05:00.767Z,98818.91
2022-08-23T17:07:27.701Z,98827.25
2022-08-23T17:09:54.569Z,98803.78
2022-08-23T17:12:21.768Z,98823.47
2022-08-23T17:14:50.767Z,98796.69
2022-08-23T17:17:18.241Z,98821.28
2022-08-23T17:19:45.056Z,98822.81
2022-08-23T17:22:12.520Z,98821.94
2022-08-23T17:24:39.539Z,98820.66
2022-08-23T17:27:07.172Z,98832.59
2022-08-23T17:29:37.331Z,98828.78
2022-08-23T17:32:05.225Z,98837.06
2022-08-23T17:34:32.200Z,98842.41
2022-08-23T17:36:59.692Z,98842.88
2022-08-23T17:39:29.295Z,98832.91
2022-08-23T17:41:58.389Z,98843.81
2022-08-23T17:44:25.394Z,98825.94
2022-08-23T17:46:52.981Z,98850.34
2022-08-23T17:49:20.398Z,98847.84
2022-08-23T17:51:48.280Z,98857.22
2022-08-23T17:54:15.870Z,98838.47
2022-08-23T17:56:43.448Z,98851.28
2022-08-23T17:59:18.962Z,98863.69
2022-08-23T18:01:45.796Z,98865.13
2022-08-23T18:04:12.696Z,98870.88
2022-08-23T18:06:39.657Z,98855.75
2022-08-23T18:09:07.791Z,98864.16
2022-08-23T18:11:35.889Z,98884.28
2022-08-23T18:14:03.357Z,98865.09
2022-08-23T18:16:35.280Z,98879.41
2022-08-23T18:19:05.019Z,98891.25
2022-08-23T18:21:33.045Z,98874.75
2022-08-23T18:23:59.933Z,98884.03
2022-08-23T18:26:46.396Z,98902.16
2022-08-23T18:29:14.746Z,98903.06
2022-08-23T18:31:44.179Z,98902.28
2022-08-23T18:34:13.063Z,98906.78
2022-08-23T18:36:40.450Z,98906.25
2022-08-23T18:39:09.161Z,98883.63
2022-08-23T18:41:36.108Z,98900.19
2022-08-23T18:44:05.448Z,98911.78
2022-08-23T18:46:39.040Z,98906.00
2022-08-23T18:49:07.171Z,98919.09
2022-08-23T18:51:34.197Z,98914.78
2022-08-23T18:54:01.067Z,98917.75
2022-08-23T18:56:29.179Z,98928.03
2022-08-23T18:58:56.289Z,98930.34
2022-08-23T19:01:26.173Z,98939.13
2022-08-23T19:03:54.716Z,98926.34
2022-08-23T19:06:22.453Z,98915.72
2022-08-23T19:08:49.562Z,98942.53
2022-08-23T19:11:16.381Z,98948.50
2022-08-23T19:13:43.229Z,98957.25
2022-08-23T19:16:13.193Z,98964.66
2022-08-23T19:18:46.549Z,98972.56
2022-08-23T19:21:18.228Z,98956.97
2022-08-23T19:23:46.066Z,98960.72
2022-08-23T19:26:15.666Z,98974.78
2022-08-23T19:28:43.312Z,98971.75
2022-08-23T19:31:11.359Z,98977.00
2022-08-23T19:33:38.705Z,98976.88
2022-08-23T19:36:06.228Z,98964.53
2022-08-23T19:38:33.435Z,98984.22
2022-08-23T19:41:02.797Z,98968.94
2022-08-23T19:43:29.811Z,98958.69
2022-08-23T19:45:59.454Z,98971.59
2022-08-23T19:48:26.444Z,98987.16
2022-08-23T19:50:53.563Z,98990.25
2022-08-23T19:53:20.606Z,98988.91
2022-08-23T19:55:47.897Z,98996.84
2022-08-23T19:58:16.213Z,98977.91
2022-08-23T20:00:43.185Z,98983.34
2022-08-23T20:03:11.701Z,99007.00
2022-08-23T20:05:39.265Z,99000.97
2022-08-23T20:08:06.134Z,99018.25
2022-08-23T20:10:33.070Z,99015.59
2022-08-23T20:13:01.008Z,99014.91
2022-08-23T20:15:29.138Z,99018.47
2022-08-23T20:17:56.437Z,99012.66
2022-08-23T20:20:23.262Z,99030.44
2022-08-23T20:23:08.581Z,99032.06
2022-08-23T20:25:36.590Z,99050.41
2022-08-23T20:28:07.549Z,99043.94
2022-08-23T20:30:37.356Z,99037.75
2022-08-23T20:33:04.997Z,99044.38
2022-08-23T20:35:31.987Z,99030.69
2022-08-23T20:37:58.907Z,99026.25
2022-08-23T20:40:26.035Z,99038.31
2022-08-23T20:42:53.041Z,99039.69
2022-08-23T20:45:20.857Z,99032.34
2022-08-23T20:47:47.718Z,99028.94
2022-08-23T20:50:14.659Z,99009.44
2022-08-23T20:52:41.605Z,99024.28
2022-08-23T20:55:10.692Z,99037.31
2022-08-23T20:57:38.826Z,99049.75
2022-08-23T21:00:07.779Z,99047.41
2022-08-23T21:02:34.926Z,99054.59
2022-08-23T21:05:01.769Z,99038.97
2022-08-23T21:07:31.635Z,99068.41
2022-08-23T21:09:58.459Z,99056.56
2022-08-23T21:12:25.253Z,99058.53
2022-08-23T21:14:52.231Z,99042.44
2022-08-23T21:17:19.040Z,99048.41
2022-08-23T21:19:45.958Z,99058.81
2022-08-23T21:22:12.784Z,99061.06
2022-08-23T21:24:39.588Z,99048.03
2022-08-23T21:27:09.578Z,99061.91
2022-08-23T21:29:37.663Z,99052.84
2022-08-23T21:32:05.188Z,99052.72
2022-08-23T21:34:32.007Z,99051.47
2022-08-23T21:36:58.824Z,99063.44
2022-08-23T21:39:26.229Z,99044.59
2022-08-23T21:41:55.646Z,99044.63
2022-08-23T21:44:23.290Z,99057.06
2022-08-23T21:46:50.081Z,99048.78
2022-08-23T21:49:17.195Z,99049.19
2022-08-23T21:51:45.471Z,99052.81
2022-08-23T21:54:13.821Z,99058.34
2022-08-23T21:56:41.707Z,99063.91
2022-08-23T21:59:16.671Z,99044.75
2022-08-23T22:01:44.717Z,99044.06
2022-08-23T22:04:14.839Z,99039.50
2022-08-23T22:06:44.961Z,99051.00
2022-08-23T22:09:18.328Z,99061.44
2022-08-23T22:11:47.700Z,99054.91
2022-08-23T22:14:25.537Z,99025.75
2022-08-23T22:16:59.105Z,99041.03
2022-08-23T22:19:26.304Z,99036.88
2022-08-23T22:21:53.285Z,99052.25
2022-08-23T22:24:25.500Z,99045.72
2022-08-23T22:26:54.497Z,99036.44
2022-08-23T22:29:21.807Z,99036.97
2022-08-23T22:31:49.434Z,99053.03
2022-08-23T22:34:16.711Z,99057.50
2022-08-23T22:36:43.605Z,99055.00
2022-08-23T22:39:13.058Z,99041.41
2022-08-23T22:41:40.305Z,99049.84
2022-08-23T22:44:07.402Z,99051.50
2022-08-23T22:46:35.192Z,99045.38
2022-08-23T22:49:02.196Z,99048.81
2022-08-23T22:51:32.692Z,99046.59
2022-08-23T22:54:02.978Z,99046.88
2022-08-23T22:56:36.688Z,99040.72
2022-08-23T22:59:03.675Z,99046.84
2022-08-23T23:01:34.935Z,99037.53
2022-08-23T23:04:06.682Z,99049.00
2022-08-23T23:06:35.770Z,99051.06
2022-08-23T23:09:06.374Z,99029.88
2022-08-23T23:11:34.846Z,99034.47
2022-08-23T23:14:03.406Z,99050.41
2022-08-23T23:16:30.351Z,99043.13
2022-08-23T23:19:17.549Z,99042.56
2022-08-23T23:21:50.897Z,99046.03
2022-08-23T23:24:23.584Z,99043.66
2022-08-23T23:26:50.639Z,99045.59
2022-08-23T23:29:18.719Z,99042.63
2022-08-23T23:31:45.782Z,99042.34
2022-08-23T23:34:12.770Z,99039.41
2022-08-23T23:36:41.046Z,99040.53
2022-08-23T23:39:10.853Z,99044.31
2022-08-23T23:41:37.732Z,99042.44
2022-08-23T23:44:05.705Z,99028.84
2022-08-23T23:46:32.621Z,99039.03
2022-08-23T23:48:59.439Z,99049.63
2022-08-23T23:51:30.653Z,99041.41
2022-08-23T23:53:59.369Z,99041.78
2022-08-23T23:56:30.513Z,99050.56
2022-08-23T23:58:58.618Z,99019.25
